createdAt,value
2018-09-04T00:00:52.358Z,51.44
2018-09-04T00:03:19.069Z,51.37
2018-09-04T00:05:45.844Z,51.39
2018-09-04T00:08:12.536Z,51.56
2018-09-04T00:10:39.224Z,51.56
2018-09-04T00:13:05.953Z,51.50
2018-09-04T00:15:32.624Z,51.49
2018-09-04T00:17:59.342Z,51.45
2018-09-04T00:20:28.983Z,51.48
2018-09-04T00:22:55.768Z,51.59
2018-09-04T00:25:25.587Z,51.69
2018-09-04T00:27:52.326Z,51.63
2018-09-04T00:30:19.003Z,51.58
2018-09-04T00:32:45.728Z,51.66
2018-09-04T00:35:12.446Z,51.77
2018-09-04T00:37:39.116Z,51.60
2018-09-04T00:40:05.943Z,51.62
2018-09-04T00:42:32.626Z,51.70
2018-09-04T00:44:59.352Z,51.87
2018-09-04T00:47:26.042Z,51.68
2018-09-04T00:49:54.370Z,51.66
2018-09-04T00:52:21.172Z,51.66
2018-09-04T00:54:47.901Z,51.61
2018-09-04T00:57:14.569Z,51.75
2018-09-04T00:59:42.676Z,51.79
2018-09-04T01:02:07.996Z,51.93
2018-09-04T01:04:34.706Z,51.86
2018-09-04T01:07:04.244Z,52.00
2018-09-04T01:09:31.927Z,51.86
2018-09-04T01:11:57.593Z,51.79
2018-09-04T01:14:24.264Z,51.81
2018-09-04T01:16:50.984Z,51.83
2018-09-04T01:19:19.240Z,51.71
2018-09-04T01:21:44.383Z,51.72
2018-09-04T01:24:11.066Z,51.61
2018-09-04T01:26:37.829Z,51.66
2018-09-04T01:29:04.504Z,51.69
2018-09-04T01:31:31.220Z,51.66
2018-09-04T01:33:57.945Z,51.67
2018-09-04T01:36:24.653Z,51.70
2018-09-04T01:38:51.409Z,51.68
2018-09-04T01:41:18.122Z,51.65
2018-09-04T01:43:44.856Z,51.74
2018-09-04T01:46:11.498Z,51.72
2018-09-04T01:48:38.228Z,51.56
2018-09-04T01:51:04.912Z,51.77
2018-09-04T01:53:31.592Z,51.85
2018-09-04T01:55:58.310Z,51.74
2018-09-04T01:58:24.980Z,51.74
2018-09-04T02:00:51.777Z,51.76
2018-09-04T02:03:18.462Z,51.64
2018-09-04T02:05:45.211Z,51.56
2018-09-04T02:08:11.894Z,51.59
2018-09-04T02:10:38.619Z,51.74
2018-09-04T02:13:05.348Z,51.73
2018-09-04T02:15:32.065Z,51.65
2018-09-04T02:17:58.739Z,51.77
2018-09-04T02:20:25.487Z,51.52
2018-09-04T02:22:52.252Z,51.64
2018-09-04T02:25:20.403Z,51.66
2018-09-04T02:27:45.637Z,51.74
2018-09-04T02:30:12.311Z,51.65
2018-09-04T02:32:39.113Z,51.65
2018-09-04T02:35:07.324Z,51.68
2018-09-04T02:37:32.527Z,51.67
2018-09-04T02:39:59.262Z,51.72
2018-09-04T02:42:25.978Z,51.69
2018-09-04T02:44:52.719Z,51.60
2018-09-04T02:47:19.402Z,51.55
2018-09-04T02:49:46.119Z,51.59
2018-09-04T02:52:12.964Z,51.63
2018-09-04T02:54:39.646Z,51.60
2018-09-04T02:57:06.460Z,51.48
2018-09-04T02:59:33.186Z,51.48
2018-09-04T03:01:59.830Z,51.60
2018-09-04T03:04:26.611Z,51.50
2018-09-04T03:06:53.341Z,51.57
2018-09-04T03:09:20.058Z,51.66
2018-09-04T03:11:46.737Z,51.64
2018-09-04T03:14:13.506Z,51.59
2018-09-04T03:16:40.225Z,51.53
2018-09-04T03:19:06.901Z,51.70
2018-09-04T03:21:33.626Z,51.68
2018-09-04T03:24:00.349Z,51.56
2018-09-04T03:26:27.157Z,51.39
2018-09-04T03:28:53.875Z,51.57
2018-09-04T03:31:22.632Z,51.54
2018-09-04T03:33:49.258Z,51.46
2018-09-04T03:36:16.014Z,51.53
2018-09-04T03:38:42.762Z,51.51
2018-09-04T03:41:09.446Z,51.47
2018-09-04T03:43:36.194Z,51.53
2018-09-04T03:46:02.878Z,51.48
2018-09-04T03:48:29.556Z,51.29
2018-09-04T03:50:56.332Z,51.36
2018-09-04T03:53:23.021Z,51.50
2018-09-04T03:55:49.727Z,51.39
2018-09-04T03:58:16.405Z,51.44
2018-09-04T04:00:43.100Z,52.09
2018-09-04T04:03:09.893Z,51.89
2018-09-04T04:05:36.661Z,51.70
2018-09-04T04:08:03.374Z,51.45
2018-09-04T04:10:30.113Z,51.64
2018-09-04T04:12:56.801Z,51.72
2018-09-04T04:15:23.552Z,51.95
2018-09-04T04:17:50.290Z,51.78
2018-09-04T04:20:16.971Z,51.55
2018-09-04T04:22:43.737Z,51.59
2018-09-04T04:25:10.422Z,51.35
2018-09-04T04:27:37.107Z,51.33
2018-09-04T04:30:03.799Z,51.36
2018-09-04T04:32:32.645Z,51.32
2018-09-04T04:34:57.193Z,51.19
2018-09-04T04:37:23.877Z,51.26
2018-09-04T04:39:53.276Z,51.26
2018-09-04T04:42:19.898Z,51.21
2018-09-04T04:44:46.599Z,51.21
2018-09-04T04:47:13.293Z,51.29
2018-09-04T04:49:39.998Z,51.09
2018-09-04T04:52:06.669Z,51.11
2018-09-04T04:54:33.359Z,51.09
2018-09-04T04:57:00.096Z,51.09
2018-09-04T04:59:29.842Z,51.07
2018-09-04T05:01:56.566Z,50.96
2018-09-04T05:04:24.279Z,50.97
2018-09-04T05:06:49.924Z,51.02
2018-09-04T05:09:16.597Z,50.97
2018-09-04T05:11:43.337Z,50.78
2018-09-04T05:14:09.994Z,50.77
2018-09-04T05:16:36.681Z,50.71
2018-09-04T05:19:06.242Z,50.75
2018-09-04T05:21:32.926Z,50.75
2018-09-04T05:24:02.908Z,50.77
2018-09-04T05:26:29.717Z,50.60
2018-09-04T05:28:56.405Z,50.30
2018-09-04T05:31:25.772Z,50.47
2018-09-04T05:33:52.451Z,50.54
2018-09-04T05:36:19.250Z,50.48
2018-09-04T05:38:45.935Z,50.53
2018-09-04T05:41:12.605Z,50.52
2018-09-04T05:43:39.440Z,50.73
2018-09-04T05:46:06.123Z,50.75
2018-09-04T05:48:32.802Z,50.80
2018-09-04T05:50:59.489Z,50.88
2018-09-04T05:53:26.165Z,50.68
2018-09-04T05:55:53.037Z,50.70
2018-09-04T05:58:19.834Z,50.38
2018-09-04T06:00:46.483Z,51.00
2018-09-04T06:03:13.212Z,51.12
2018-09-04T06:05:39.891Z,51.10
2018-09-04T06:08:06.578Z,51.20
2018-09-04T06:10:33.257Z,51.19
2018-09-04T06:12:59.940Z,51.13
2018-09-04T06:15:29.982Z,51.25
2018-09-04T06:17:56.765Z,50.95
2018-09-04T06:20:23.456Z,50.60
2018-09-04T06:22:53.125Z,50.97
2018-09-04T06:25:19.881Z,50.90
2018-09-04T06:27:46.587Z,51.01
2018-09-04T06:30:13.337Z,50.66
2018-09-04T06:32:40.057Z,50.80
2018-09-04T06:35:06.790Z,50.68
2018-09-04T06:37:33.660Z,50.70
2018-09-04T06:40:00.346Z,50.54
2018-09-04T06:42:27.038Z,50.68
2018-09-04T06:44:53.738Z,50.71
2018-09-04T06:47:20.548Z,50.53
2018-09-04T06:49:47.203Z,50.39
2018-09-04T06:52:13.894Z,50.57
2018-09-04T06:54:40.636Z,50.42
2018-09-04T06:57:09.510Z,50.24
2018-09-04T06:59:34.086Z,50.20
2018-09-04T07:02:00.776Z,50.26
2018-09-04T07:04:27.548Z,50.00
2018-09-04T07:06:54.234Z,49.87
2018-09-04T07:09:20.938Z,49.68
2018-09-04T07:11:47.664Z,49.70
2018-09-04T07:14:17.703Z,49.60
2018-09-04T07:16:44.565Z,49.46
2018-09-04T07:19:11.251Z,49.36
2018-09-04T07:21:37.970Z,49.55
2018-09-04T07:24:04.682Z,49.88
2018-09-04T07:26:31.422Z,49.86
2018-09-04T07:28:58.251Z,49.99
2018-09-04T07:31:25.547Z,50.05
2018-09-04T07:33:52.177Z,50.14
2018-09-04T07:36:18.943Z,50.19
2018-09-04T07:38:45.583Z,49.81
2018-09-04T07:41:12.334Z,49.37
2018-09-04T07:43:39.002Z,48.72
2018-09-04T07:46:07.398Z,48.29
2018-09-04T07:48:32.475Z,47.87
2018-09-04T07:50:59.213Z,48.78
2018-09-04T07:53:26.006Z,48.65
2018-09-04T07:55:52.656Z,49.59
2018-09-04T07:58:19.820Z,49.10
2018-09-04T08:00:46.575Z,49.58
2018-09-04T08:03:13.323Z,49.44
2018-09-04T08:05:40.037Z,49.43
2018-09-04T08:08:08.943Z,49.43
2018-09-04T08:10:35.697Z,48.84
2018-09-04T08:13:02.405Z,50.01
2018-09-04T08:15:31.944Z,50.22
2018-09-04T08:17:58.816Z,50.64
2018-09-04T08:20:25.518Z,50.88
2018-09-04T08:22:52.330Z,50.47
2018-09-04T08:25:18.915Z,50.18
2018-09-04T08:27:45.659Z,49.39
2018-09-04T08:30:12.426Z,49.53
2018-09-04T08:32:42.024Z,49.98
2018-09-04T08:35:08.741Z,49.79
2018-09-04T08:37:38.645Z,49.80
2018-09-04T08:40:14.918Z,50.60
2018-09-04T08:42:41.736Z,50.87
2018-09-04T08:45:08.436Z,50.87
2018-09-04T08:47:35.126Z,50.79
2018-09-04T08:50:01.949Z,50.41
2018-09-04T08:52:28.734Z,50.01
2018-09-04T08:54:56.707Z,49.81
2018-09-04T08:57:22.097Z,49.17
2018-09-04T08:59:48.777Z,49.70
2018-09-04T09:02:15.454Z,50.12
2018-09-04T09:04:44.601Z,50.47
2018-09-04T09:07:12.087Z,50.68
2018-09-04T09:09:38.827Z,50.81
2018-09-04T09:12:05.519Z,50.08
2018-09-04T09:14:32.248Z,49.71
2018-09-04T09:16:59.061Z,49.43
2018-09-04T09:19:27.032Z,48.93
2018-09-04T09:21:52.492Z,48.54
2018-09-04T09:24:19.177Z,48.96
2018-09-04T09:26:45.874Z,49.09
2018-09-04T09:29:12.563Z,49.71
2018-09-04T09:31:39.252Z,49.09
2018-09-04T09:34:06.056Z,49.26
2018-09-04T09:36:32.774Z,49.21
2018-09-04T09:39:00.822Z,49.29
2018-09-04T09:41:29.403Z,48.40
2018-09-04T09:43:56.163Z,49.02
2018-09-04T09:46:22.899Z,49.72
2018-09-04T09:48:49.637Z,50.61
2018-09-04T09:51:16.397Z,50.81
2018-09-04T09:53:43.345Z,50.49
2018-09-04T09:56:10.378Z,50.32
2018-09-04T09:58:37.101Z,50.42
2018-09-04T10:01:06.881Z,50.24
2018-09-04T10:03:33.626Z,49.44
2018-09-04T10:06:00.451Z,49.31
2018-09-04T10:08:27.208Z,50.09
2018-09-04T10:10:53.863Z,51.19
2018-09-04T10:13:20.549Z,50.89
2018-09-04T10:15:47.569Z,50.12
2018-09-04T10:18:14.641Z,50.32
2018-09-04T10:20:41.320Z,49.46
2018-09-04T10:23:08.039Z,49.62
2018-09-04T10:25:34.696Z,49.68
2018-09-04T10:28:01.541Z,50.18
2018-09-04T10:30:29.747Z,49.76
2018-09-04T10:32:54.781Z,50.36
2018-09-04T10:35:21.440Z,49.99
2018-09-04T10:37:48.927Z,50.35
2018-09-04T10:40:17.702Z,50.21
2018-09-04T10:42:44.397Z,50.11
2018-09-04T10:45:11.058Z,49.96
2018-09-04T10:47:37.761Z,49.70
2018-09-04T10:50:04.420Z,48.66
2018-09-04T10:52:31.063Z,49.14
2018-09-04T10:54:57.740Z,49.50
2018-09-04T10:57:24.377Z,49.11
2018-09-04T10:59:51.128Z,48.82
2018-09-04T11:02:17.836Z,48.21
2018-09-04T11:04:44.526Z,47.71
2018-09-04T11:07:11.186Z,47.62
2018-09-04T11:09:40.249Z,46.59
2018-09-04T11:12:09.450Z,46.83
2018-09-04T11:14:36.547Z,46.86
2018-09-04T11:17:03.361Z,46.96
2018-09-04T11:19:31.398Z,46.97
2018-09-04T11:21:56.727Z,46.93
2018-09-04T11:24:23.395Z,47.34
2018-09-04T11:26:50.133Z,47.44
2018-09-04T11:29:16.734Z,46.46
2018-09-04T11:31:43.410Z,46.64
2018-09-04T11:34:10.161Z,46.56
2018-09-04T11:36:36.991Z,46.09
2018-09-04T11:39:05.085Z,46.02
2018-09-04T11:41:30.614Z,46.16
2018-09-04T11:43:57.225Z,46.48
2018-09-04T11:46:23.955Z,45.85
2018-09-04T11:48:50.696Z,45.91
2018-09-04T11:51:17.429Z,45.84
2018-09-04T11:53:44.159Z,44.87
2018-09-04T11:56:10.847Z,45.56
2018-09-04T11:58:37.568Z,45.36
2018-09-04T12:01:04.335Z,45.57
2018-09-04T12:03:31.044Z,44.95
2018-09-04T12:05:57.770Z,44.81
2018-09-04T12:08:24.604Z,44.00
2018-09-04T12:10:53.467Z,44.59
2018-09-04T12:13:20.195Z,44.38
2018-09-04T12:15:46.885Z,44.45
2018-09-04T12:18:13.621Z,43.68
2018-09-04T12:20:40.405Z,43.32
2018-09-04T12:23:07.197Z,43.26
2018-09-04T12:25:33.942Z,43.65
2018-09-04T12:28:00.697Z,42.56
2018-09-04T12:30:27.362Z,43.08
2018-09-04T12:32:54.209Z,42.60
2018-09-04T12:35:20.985Z,42.38
2018-09-04T12:37:47.621Z,42.14
2018-09-04T12:40:14.355Z,41.80
2018-09-04T12:42:41.563Z,41.95
2018-09-04T12:45:11.649Z,42.40
2018-09-04T12:47:38.364Z,40.96
2018-09-04T12:50:05.216Z,41.25
2018-09-04T12:52:34.433Z,41.29
2018-09-04T12:55:01.103Z,41.01
2018-09-04T12:57:27.932Z,41.44
2018-09-04T12:59:54.733Z,40.85
2018-09-04T13:02:22.739Z,40.80
2018-09-04T13:04:48.032Z,40.78
2018-09-04T13:07:14.766Z,40.51
2018-09-04T13:09:41.521Z,40.46
2018-09-04T13:12:08.282Z,40.46
2018-09-04T13:14:35.034Z,40.17
2018-09-04T13:17:01.724Z,40.86
2018-09-04T13:19:28.451Z,41.12
2018-09-04T13:21:55.263Z,41.33
2018-09-04T13:24:21.894Z,40.80
2018-09-04T13:26:48.739Z,41.78
2018-09-04T13:29:15.454Z,42.05
2018-09-04T13:31:42.130Z,42.26
2018-09-04T13:34:08.903Z,42.17
2018-09-04T13:36:35.690Z,40.61
2018-09-04T13:39:08.945Z,40.79
2018-09-04T13:41:28.961Z,41.11
2018-09-04T13:43:55.643Z,40.55
2018-09-04T13:46:22.279Z,40.95
2018-09-04T13:48:49.017Z,41.31
2018-09-04T13:51:15.671Z,41.82
2018-09-04T13:53:42.320Z,41.94
2018-09-04T13:56:09.034Z,41.75
2018-09-04T13:58:35.677Z,41.24
2018-09-04T14:01:02.341Z,42.10
2018-09-04T14:03:29.064Z,41.68
2018-09-04T14:05:55.730Z,42.85
2018-09-04T14:08:22.426Z,42.49
2018-09-04T14:10:49.083Z,41.89
2018-09-04T14:13:17.064Z,41.81
2018-09-04T14:15:43.683Z,41.78
2018-09-04T14:18:09.033Z,41.11
2018-09-04T14:20:35.688Z,41.81
2018-09-04T14:23:02.358Z,42.11
2018-09-04T14:25:29.069Z,42.00
2018-09-04T14:27:55.944Z,42.49
2018-09-04T14:30:22.644Z,42.32
2018-09-04T14:32:49.310Z,41.65
2018-09-04T14:35:15.974Z,41.98
2018-09-04T14:37:44.108Z,41.48
2018-09-04T14:40:09.542Z,41.34
2018-09-04T14:42:36.160Z,41.04
2018-09-04T14:45:02.850Z,40.94
2018-09-04T14:47:29.467Z,40.71
2018-09-04T14:49:56.229Z,40.27
2018-09-04T14:52:22.964Z,40.31
2018-09-04T14:54:51.507Z,40.51
2018-09-04T14:57:16.231Z,40.20
2018-09-04T14:59:42.886Z,39.77
2018-09-04T15:02:09.604Z,40.53
2018-09-04T15:04:36.317Z,41.27
2018-09-04T15:07:03.036Z,41.14
2018-09-04T15:09:29.622Z,41.04
2018-09-04T15:11:56.356Z,41.07
2018-09-04T15:14:23.075Z,41.42
2018-09-04T15:16:49.714Z,40.77
2018-09-04T15:19:18.204Z,40.97
2018-09-04T15:21:43.087Z,40.86
2018-09-04T15:24:09.738Z,40.68
2018-09-04T15:26:36.377Z,39.84
2018-09-04T15:29:03.033Z,39.81
2018-09-04T15:31:29.738Z,40.91
2018-09-04T15:33:56.509Z,41.06
2018-09-04T15:36:23.155Z,40.94
2018-09-04T15:38:49.808Z,40.54
2018-09-04T15:41:16.467Z,40.45
2018-09-04T15:43:43.149Z,40.21
2018-09-04T15:46:09.850Z,40.45
2018-09-04T15:48:36.524Z,40.39
2018-09-04T15:51:03.201Z,40.13
2018-09-04T15:53:31.192Z,40.01
2018-09-04T15:55:57.835Z,40.61
2018-09-04T15:58:23.141Z,41.73
2018-09-04T16:00:49.802Z,41.91
2018-09-04T16:03:16.474Z,41.32
2018-09-04T16:05:43.179Z,40.69
2018-09-04T16:08:09.833Z,40.46
2018-09-04T16:10:36.499Z,40.31
2018-09-04T16:13:03.171Z,40.24
2018-09-04T16:15:30.304Z,40.08
2018-09-04T16:17:58.339Z,39.90
2018-09-04T16:20:23.582Z,39.63
2018-09-04T16:22:50.320Z,40.55
2018-09-04T16:25:17.037Z,41.89
2018-09-04T16:27:43.684Z,41.56
2018-09-04T16:30:10.328Z,41.65
2018-09-04T16:32:37.317Z,41.21
2018-09-04T16:35:03.789Z,40.87
2018-09-04T16:37:30.486Z,40.83
2018-09-04T16:39:57.197Z,40.68
2018-09-04T16:42:23.867Z,40.55
2018-09-04T16:44:50.574Z,40.73
2018-09-04T16:47:18.972Z,40.58
2018-09-04T16:49:43.972Z,40.91
2018-09-04T16:52:10.620Z,40.88
2018-09-04T16:54:37.264Z,40.87
2018-09-04T16:57:03.903Z,40.98
2018-09-04T16:59:30.558Z,41.06
2018-09-04T17:01:57.193Z,41.07
2018-09-04T17:04:23.912Z,41.13
2018-09-04T17:06:50.556Z,41.26
2018-09-04T17:09:17.200Z,41.33
2018-09-04T17:11:43.865Z,41.18
2018-09-04T17:14:10.543Z,41.34
2018-09-04T17:16:37.192Z,41.45
2018-09-04T17:19:03.831Z,41.61
2018-09-04T17:21:30.484Z,41.48
2018-09-04T17:23:57.122Z,41.70
2018-09-04T17:26:25.996Z,41.85
2018-09-04T17:28:50.535Z,41.79
2018-09-04T17:31:17.136Z,42.03
2018-09-04T17:33:43.778Z,42.04
2018-09-04T17:36:10.440Z,42.15
2018-09-04T17:38:40.035Z,42.25
2018-09-04T17:41:06.687Z,42.32
2018-09-04T17:43:33.322Z,42.38
2018-09-04T17:45:59.967Z,42.36
2018-09-04T17:48:26.602Z,42.38
2018-09-04T17:50:53.313Z,42.41
2018-09-04T17:53:19.917Z,42.50
2018-09-04T17:55:46.566Z,42.72
2018-09-04T17:58:13.212Z,42.56
2018-09-04T18:00:39.898Z,42.68
2018-09-04T18:03:06.608Z,42.85
2018-09-04T18:05:33.338Z,42.85
2018-09-04T18:07:59.976Z,42.92
2018-09-04T18:10:26.705Z,43.04
2018-09-04T18:12:54.437Z,43.06
2018-09-04T18:15:20.095Z,43.25
2018-09-04T18:17:46.727Z,43.05
2018-09-04T18:20:13.375Z,43.43
2018-09-04T18:22:40.025Z,43.45
2018-09-04T18:25:06.688Z,43.40
2018-09-04T18:27:33.414Z,43.67
2018-09-04T18:30:00.057Z,43.68
2018-09-04T18:32:26.693Z,43.84
2018-09-04T18:34:53.408Z,43.81
2018-09-04T18:37:20.046Z,43.92
2018-09-04T18:39:46.698Z,43.91
2018-09-04T18:42:16.546Z,43.95
2018-09-04T18:44:44.695Z,43.89
2018-09-04T18:47:09.894Z,43.89
2018-09-04T18:49:36.627Z,43.97
2018-09-04T18:52:03.261Z,43.91
2018-09-04T18:54:31.262Z,44.21
2018-09-04T18:56:56.570Z,44.26
2018-09-04T18:59:23.190Z,44.27
2018-09-04T19:01:49.884Z,44.15
2018-09-04T19:04:16.559Z,44.38
2018-09-04T19:06:43.255Z,44.22
2018-09-04T19:09:09.809Z,44.18
2018-09-04T19:11:36.463Z,44.15
2018-09-04T19:14:03.162Z,44.37
2018-09-04T19:16:29.761Z,44.19
2018-09-04T19:18:56.402Z,44.08
2018-09-04T19:21:26.252Z,44.29
2018-09-04T19:23:52.942Z,44.19
2018-09-04T19:26:19.575Z,44.16
2018-09-04T19:28:46.219Z,44.29
2018-09-04T19:31:12.859Z,44.21
2018-09-04T19:33:39.531Z,44.18
2018-09-04T19:36:06.245Z,44.19
2018-09-04T19:38:32.902Z,44.36
2018-09-04T19:40:59.542Z,44.31
2018-09-04T19:43:26.177Z,44.40
2018-09-04T19:45:52.915Z,44.31
2018-09-04T19:48:19.622Z,44.26
2018-09-04T19:50:46.350Z,44.38
2018-09-04T19:53:12.953Z,44.28
2018-09-04T19:55:39.591Z,44.41
2018-09-04T19:58:06.236Z,44.52
2018-09-04T20:00:32.923Z,44.49
2018-09-04T20:02:59.560Z,44.40
2018-09-04T20:05:26.212Z,44.40
2018-09-04T20:07:52.984Z,44.45
2018-09-04T20:10:19.639Z,44.34
2018-09-04T20:12:46.290Z,44.49
2018-09-04T20:15:12.956Z,44.57
2018-09-04T20:17:39.645Z,44.37
2018-09-04T20:20:06.387Z,44.40
2018-09-04T20:22:33.038Z,44.51
2018-09-04T20:24:59.777Z,44.67
2018-09-04T20:27:26.494Z,44.65
2018-09-04T20:29:53.141Z,44.54
2018-09-04T20:32:19.778Z,44.45
2018-09-04T20:34:46.769Z,44.57
2018-09-04T20:37:13.439Z,44.42
2018-09-04T20:39:40.126Z,44.43
2018-09-04T20:42:06.820Z,44.37
2018-09-04T20:44:33.537Z,44.61
2018-09-04T20:47:00.195Z,44.50
2018-09-04T20:49:26.903Z,44.71
2018-09-04T20:51:53.560Z,44.49
2018-09-04T20:54:20.266Z,44.59
2018-09-04T20:56:46.887Z,44.61
2018-09-04T20:59:15.015Z,44.52
2018-09-04T21:01:40.287Z,44.54
2018-09-04T21:04:06.970Z,44.24
2018-09-04T21:06:33.712Z,44.54
2018-09-04T21:09:01.837Z,44.30
2018-09-04T21:11:27.312Z,44.29
2018-09-04T21:13:53.985Z,44.36
2018-09-04T21:16:20.701Z,44.27
2018-09-04T21:18:47.388Z,44.08
2018-09-04T21:21:14.198Z,44.13
2018-09-04T21:23:40.883Z,44.11
2018-09-04T21:26:10.774Z,44.02
2018-09-04T21:28:37.625Z,43.98
2018-09-04T21:31:04.365Z,43.93
2018-09-04T21:33:31.095Z,44.06
2018-09-04T21:35:57.862Z,43.89
2018-09-04T21:38:24.613Z,43.92
2018-09-04T21:40:51.365Z,43.93
2018-09-04T21:43:19.083Z,43.81
2018-09-04T21:45:44.759Z,43.86
2018-09-04T21:48:11.429Z,43.71
2018-09-04T21:50:38.143Z,43.76
2018-09-04T21:53:04.832Z,43.67
2018-09-04T21:55:31.599Z,43.78
2018-09-04T21:57:58.401Z,43.77
2018-09-04T22:00:25.079Z,43.71
2018-09-04T22:02:51.869Z,43.56
2018-09-04T22:05:18.562Z,43.50
2018-09-04T22:07:45.234Z,43.58
2018-09-04T22:10:11.913Z,43.50
2018-09-04T22:12:38.670Z,43.43
2018-09-04T22:15:05.322Z,43.62
2018-09-04T22:17:32.057Z,43.59
2018-09-04T22:20:00.513Z,43.56
2018-09-04T22:22:28.453Z,43.52
2018-09-04T22:24:55.140Z,43.44
2018-09-04T22:27:21.947Z,43.41
2018-09-04T22:29:48.631Z,43.32
2018-09-04T22:32:15.277Z,43.43
2018-09-04T22:34:42.120Z,43.36
2018-09-04T22:37:08.766Z,43.33
2018-09-04T22:39:35.483Z,43.26
2018-09-04T22:42:02.156Z,43.37
2018-09-04T22:44:28.839Z,43.35
2018-09-04T22:46:55.658Z,43.32
2018-09-04T22:49:22.325Z,43.34
2018-09-04T22:51:50.684Z,43.33
2018-09-04T22:54:15.676Z,43.36
2018-09-04T22:56:42.390Z,43.36
2018-09-04T22:59:11.699Z,43.33
2018-09-04T23:01:38.378Z,43.23
2018-09-04T23:04:05.055Z,43.20
2018-09-04T23:06:31.753Z,43.22
2018-09-04T23:08:58.509Z,43.25
2018-09-04T23:11:25.193Z,43.39
2018-09-04T23:13:51.866Z,43.21
2018-09-04T23:16:18.552Z,43.22
2018-09-04T23:18:45.239Z,43.21
2018-09-04T23:21:12.066Z,43.21
2018-09-04T23:23:38.742Z,43.27
2018-09-04T23:26:05.478Z,43.27
2018-09-04T23:28:34.369Z,43.39
2018-09-04T23:31:02.393Z,43.22
2018-09-04T23:33:29.112Z,43.27
2018-09-04T23:35:55.986Z,43.23
2018-09-04T23:38:22.695Z,43.20
2018-09-04T23:40:49.331Z,43.20
2018-09-04T23:43:16.036Z,43.22
2018-09-04T23:45:42.729Z,43.28
2018-09-04T23:48:09.559Z,43.16
2018-09-04T23:50:36.200Z,43.28
2018-09-04T23:53:03.035Z,43.31
2018-09-04T23:55:29.691Z,43.23
2018-09-04T23:57:56.481Z,43.27
